Time;durP1;ratioP1;P1;durP2;ratioP2;P2;SDS_P1;SDS_P2;PMS_P1;PMS_P2;Temp;Humidity;BMP_temperature;BMP_pressure;BME280_temperature;BME280_humidity;BME280_pressure;Samples;Min_cycle;Max_cycle;Signal;HPM_P1;HPM_P2
2020/12/15 00:00:38;;;;;;;11.20;8.20;;;10.80;99.90;;;;;;5059800;28;20033;-72
2020/12/15 00:03:04;;;;;;;16.58;8.88;;;10.70;99.90;;;;;;5054990;28;20033;-72
2020/12/15 00:05:30;;;;;;;12.38;9.05;;;10.70;99.90;;;;;;5061074;28;20037;-72
2020/12/15 00:07:55;;;;;;;10.40;8.48;;;10.60;99.90;;;;;;5052573;28;20031;-72
2020/12/15 00:10:21;;;;;;;14.75;8.77;;;10.60;99.90;;;;;;5059341;28;20124;-72
2020/12/15 00:12:46;;;;;;;13.77;9.25;;;10.60;99.90;;;;;;5058310;28;20032;-72
2020/12/15 00:15:12;;;;;;;14.80;8.68;;;10.50;99.90;;;;;;5061594;28;20029;-72
2020/12/15 00:17:38;;;;;;;15.57;8.25;;;10.50;99.90;;;;;;5065581;28;20028;-72
2020/12/15 00:20:08;;;;;;;11.27;7.32;;;10.50;99.90;;;;;;5067530;28;20063;-72
2020/12/15 00:22:35;;;;;;;14.63;8.27;;;10.40;99.90;;;;;;5056592;28;20456;-72
2020/12/15 00:25:00;;;;;;;12.57;8.45;;;10.50;99.90;;;;;;5065210;28;20504;-72
2020/12/15 00:27:26;;;;;;;12.85;7.85;;;10.50;99.90;;;;;;5060231;28;20021;-72
2020/12/15 00:29:52;;;;;;;10.57;6.97;;;10.50;99.90;;;;;;5059779;28;20381;-72
2020/12/15 00:32:17;;;;;;;12.23;6.95;;;10.50;99.90;;;;;;5058270;28;20036;-72
2020/12/15 00:34:43;;;;;;;14.55;8.40;;;10.60;99.90;;;;;;5062367;28;20063;-72
2020/12/15 00:37:08;;;;;;;16.10;8.52;;;10.50;99.90;;;;;;5056379;28;20032;-71
2020/12/15 00:39:34;;;;;;;11.07;7.68;;;10.50;99.90;;;;;;5061825;28;20025;-72
2020/12/15 00:42:00;;;;;;;11.40;8.00;;;10.50;99.90;;;;;;5056884;28;20131;-72
2020/12/15 00:44:25;;;;;;;14.73;7.80;;;10.50;99.90;;;;;;5058587;28;20134;-72
2020/12/15 00:46:51;;;;;;;11.65;7.50;;;10.50;99.90;;;;;;5062996;28;20481;-72
2020/12/15 00:49:18;;;;;;;18.42;8.65;;;10.50;99.90;;;;;;5065669;28;20086;-72
2020/12/15 00:51:45;;;;;;;13.30;8.27;;;10.50;99.90;;;;;;5058422;28;20044;-71
2020/12/15 00:54:11;;;;;;;14.02;7.88;;;10.60;99.90;;;;;;5050412;28;20031;-72
2020/12/15 00:56:40;;;;;;;12.43;7.72;;;10.60;99.90;;;;;;5060449;28;20389;-72
2020/12/15 00:59:05;;;;;;;11.13;7.00;;;10.70;99.90;;;;;;5061772;28;20036;-72
2020/12/15 01:01:31;;;;;;;13.75;8.15;;;10.70;99.90;;;;;;5053774;28;20070;-72
2020/12/15 01:03:56;;;;;;;12.45;7.38;;;10.70;99.90;;;;;;5053807;28;20037;-72
2020/12/15 01:06:22;;;;;;;11.75;7.63;;;10.70;99.90;;;;;;5053336;28;20021;-72
2020/12/15 01:08:47;;;;;;;12.88;7.80;;;10.70;99.90;;;;;;5051551;28;20032;-72
2020/12/15 01:11:13;;;;;;;10.45;7.22;;;10.70;99.90;;;;;;5048943;28;20992;-72
2020/12/15 01:13:39;;;;;;;14.55;7.45;;;10.60;99.90;;;;;;5051857;28;20059;-72
2020/12/15 01:16:08;;;;;;;12.90;8.57;;;10.60;99.90;;;;;;5052252;28;20028;-72
2020/12/15 01:18:35;;;;;;;14.63;8.10;;;10.60;99.90;;;;;;5054053;28;20029;-72
2020/12/15 01:21:04;;;;;;;16.60;8.50;;;10.60;99.90;;;;;;5050827;28;20024;-72
2020/12/15 01:23:30;;;;;;;12.65;7.30;;;10.50;99.90;;;;;;5051137;28;20147;-72
2020/12/15 01:25:56;;;;;;;9.90;7.18;;;10.50;99.90;;;;;;5052052;28;20647;-72
2020/12/15 01:28:22;;;;;;;10.68;7.47;;;10.50;99.90;;;;;;5050888;28;20031;-72
2020/12/15 01:30:47;;;;;;;14.82;8.23;;;10.40;99.90;;;;;;5050126;28;20021;-72
2020/12/15 01:33:13;;;;;;;13.55;8.25;;;10.50;99.90;;;;;;5052512;28;20486;-72
2020/12/15 01:35:38;;;;;;;11.77;7.43;;;10.60;99.90;;;;;;5051873;28;20021;-72
2020/12/15 01:38:04;;;;;;;19.67;8.05;;;10.60;99.90;;;;;;5056390;28;20033;-72
2020/12/15 01:40:30;;;;;;;14.55;8.27;;;10.60;99.90;;;;;;5051707;28;20037;-72
2020/12/15 01:42:55;;;;;;;14.25;8.00;;;10.70;99.90;;;;;;5048203;28;20029;-71
2020/12/15 01:45:21;;;;;;;11.20;7.75;;;10.70;99.90;;;;;;5052680;28;20025;-72
2020/12/15 01:47:47;;;;;;;9.88;7.22;;;10.70;99.90;;;;;;5052205;28;20033;-72
2020/12/15 01:50:13;;;;;;;10.50;8.00;;;10.70;99.90;;;;;;5052851;28;20029;-72
2020/12/15 01:52:39;;;;;;;14.85;7.95;;;10.70;99.90;;;;;;5054031;28;20032;-72
2020/12/15 01:55:06;;;;;;;13.73;7.60;;;10.70;99.90;;;;;;5052673;28;20021;-71
2020/12/15 01:57:32;;;;;;;11.35;7.72;;;10.80;99.90;;;;;;5052251;28;20036;-72
2020/12/15 01:59:57;;;;;;;10.80;7.63;;;10.80;99.90;;;;;;5054756;28;20025;-72
2020/12/15 02:02:23;;;;;;;13.35;8.02;;;10.80;99.90;;;;;;5053631;28;20032;-71
2020/12/15 02:04:49;;;;;;;11.40;7.40;;;10.70;99.90;;;;;;5055681;28;20048;-72
2020/12/15 02:07:16;;;;;;;9.52;7.35;;;10.70;99.90;;;;;;5050293;28;20405;-72
2020/12/15 02:09:42;;;;;;;11.60;7.15;;;10.70;99.90;;;;;;5050214;28;20497;-72
2020/12/15 02:12:07;;;;;;;17.52;7.70;;;10.80;99.90;;;;;;5052262;28;20031;-72
2020/12/15 02:14:33;;;;;;;11.80;7.80;;;10.80;99.90;;;;;;5059585;28;20421;-72
2020/12/15 02:17:00;;;;;;;12.38;7.70;;;10.80;99.90;;;;;;5050651;28;20017;-72
2020/12/15 02:19:25;;;;;;;15.07;8.68;;;10.70;99.90;;;;;;5051580;28;20025;-72
2020/12/15 02:22:00;;;;;;;11.38;7.88;;;10.70;99.90;;;;;;5048481;28;20036;-72
2020/12/15 02:24:26;;;;;;;13.32;8.45;;;10.80;99.90;;;;;;5050544;28;20061;-72
2020/12/15 02:26:52;;;;;;;14.30;8.32;;;10.80;99.90;;;;;;5050842;28;20382;-72
2020/12/15 02:29:18;;;;;;;10.50;8.00;;;10.80;99.90;;;;;;5052388;28;20389;-72
2020/12/15 02:31:44;;;;;;;9.77;7.85;;;10.80;99.90;;;;;;5049738;28;20009;-72
2020/12/15 02:34:10;;;;;;;11.52;8.05;;;10.80;99.90;;;;;;5061034;28;20064;-72
2020/12/15 02:36:35;;;;;;;9.23;7.40;;;10.80;99.90;;;;;;5053967;28;20024;-72
2020/12/15 02:39:12;;;;;;;11.65;8.70;;;10.70;99.90;;;;;;5050893;28;20013;-72
2020/12/15 02:41:38;;;;;;;14.98;8.05;;;10.80;99.90;;;;;;5052258;28;20029;-71
2020/12/15 02:44:06;;;;;;;11.02;7.60;;;10.80;99.90;;;;;;5050280;28;20029;-72
2020/12/15 02:46:32;;;;;;;12.40;7.57;;;10.80;99.90;;;;;;5049916;28;20009;-72
2020/12/15 02:48:58;;;;;;;11.85;7.57;;;10.80;99.90;;;;;;5053593;28;20469;-72
2020/12/15 02:51:24;;;;;;;10.80;7.53;;;10.80;99.90;;;;;;5050699;28;20024;-72
2020/12/15 02:53:50;;;;;;;11.73;8.68;;;10.80;99.90;;;;;;5052322;28;20063;-71
2020/12/15 02:56:20;;;;;;;9.13;7.20;;;10.80;99.90;;;;;;5051683;28;20102;-71
2020/12/15 02:58:46;;;;;;;11.52;8.02;;;10.80;99.90;;;;;;5049980;28;20033;-71
2020/12/15 03:01:12;;;;;;;15.25;9.20;;;10.70;99.90;;;;;;5050870;28;20616;-72
2020/12/15 03:03:37;;;;;;;14.25;8.30;;;10.70;99.90;;;;;;5054051;28;20059;-72
2020/12/15 03:06:03;;;;;;;10.10;7.38;;;10.70;99.90;;;;;;5054315;28;20470;-72
2020/12/15 03:08:28;;;;;;;11.35;7.93;;;10.70;99.90;;;;;;5057312;28;20017;-72
2020/12/15 03:10:54;;;;;;;11.50;7.43;;;10.60;99.90;;;;;;5052573;28;20115;-72
2020/12/15 03:13:20;;;;;;;10.98;6.65;;;10.70;99.90;;;;;;5058563;28;20032;-73
2020/12/15 03:15:45;;;;;;;13.43;6.78;;;10.70;99.90;;;;;;5054233;28;20862;-72
2020/12/15 03:18:11;;;;;;;10.90;7.32;;;10.70;99.90;;;;;;5053274;28;20017;-72
2020/12/15 03:20:36;;;;;;;10.95;7.78;;;10.70;99.90;;;;;;5059750;28;20048;-72
2020/12/15 03:23:02;;;;;;;16.15;7.65;;;10.70;99.90;;;;;;5055678;28;20029;-72
2020/12/15 03:25:28;;;;;;;14.30;7.80;;;10.70;99.90;;;;;;5054549;28;20473;-72
2020/12/15 03:27:54;;;;;;;13.90;7.30;;;10.70;99.90;;;;;;5063434;28;20103;-72
2020/12/15 03:30:19;;;;;;;11.15;8.10;;;10.70;99.90;;;;;;5064622;28;20028;-72
2020/12/15 03:32:45;;;;;;;12.98;7.97;;;10.70;99.90;;;;;;5059129;28;20554;-72
2020/12/15 03:35:11;;;;;;;12.80;8.88;;;10.70;99.90;;;;;;5065305;28;20043;-72
2020/12/15 03:37:36;;;;;;;14.65;8.60;;;10.70;99.90;;;;;;5059007;28;20028;-72
2020/12/15 03:40:03;;;;;;;10.95;7.45;;;10.70;99.90;;;;;;5064144;28;20115;-73
2020/12/15 03:42:28;;;;;;;14.82;8.50;;;10.80;99.90;;;;;;5063552;28;20061;-72
2020/12/15 03:44:54;;;;;;;14.23;7.10;;;10.70;99.90;;;;;;5059893;28;20075;-72
2020/12/15 03:47:20;;;;;;;15.35;8.57;;;10.70;99.90;;;;;;5059702;28;20541;-72
2020/12/15 03:49:45;;;;;;;10.38;7.00;;;10.80;99.90;;;;;;5055996;28;20397;-72
2020/12/15 03:52:11;;;;;;;13.77;9.13;;;10.70;99.90;;;;;;5061184;28;20060;-72
2020/12/15 03:54:36;;;;;;;12.18;8.85;;;10.80;99.90;;;;;;5057732;28;20535;-72
2020/12/15 03:57:02;;;;;;;10.43;7.38;;;10.70;99.90;;;;;;5049272;28;20427;-72
2020/12/15 03:59:27;;;;;;;16.10;9.88;;;10.80;99.90;;;;;;5068179;28;20026;-72
2020/12/15 04:01:53;;;;;;;15.52;9.30;;;10.80;99.90;;;;;;5054930;28;20017;-72
2020/12/15 04:04:19;;;;;;;13.95;10.02;;;10.80;99.90;;;;;;5064178;28;20040;-72
2020/12/15 04:06:45;;;;;;;16.13;9.32;;;10.80;99.90;;;;;;5061954;28;20021;-72
2020/12/15 04:09:10;;;;;;;11.82;8.68;;;10.80;99.90;;;;;;5055576;28;20432;-72
2020/12/15 04:11:36;;;;;;;13.18;9.52;;;10.70;99.90;;;;;;5060114;28;20037;-72
2020/12/15 04:14:01;;;;;;;15.52;10.65;;;10.80;99.90;;;;;;5057740;28;20054;-72
2020/12/15 04:16:27;;;;;;;12.20;9.55;;;10.80;99.90;;;;;;5053672;28;20416;-72
2020/12/15 04:18:53;;;;;;;13.30;9.40;;;10.70;99.90;;;;;;5057553;28;20108;-72
2020/12/15 04:21:18;;;;;;;15.27;10.15;;;10.70;99.90;;;;;;5055050;28;20029;-72
2020/12/15 04:23:44;;;;;;;16.65;10.43;;;10.70;99.90;;;;;;5051781;28;20485;-72
2020/12/15 04:26:09;;;;;;;14.55;9.52;;;10.80;99.90;;;;;;5056029;28;20040;-72
2020/12/15 04:28:35;;;;;;;19.08;11.88;;;10.80;99.90;;;;;;5057162;28;20430;-72
2020/12/15 04:31:00;;;;;;;15.68;10.85;;;10.80;99.90;;;;;;5055830;28;20033;-72
2020/12/15 04:33:26;;;;;;;16.83;11.52;;;10.70;99.90;;;;;;5060298;28;20116;-72
2020/12/15 04:35:51;;;;;;;17.05;12.85;;;10.80;99.90;;;;;;5056865;28;20439;-72
2020/12/15 04:38:17;;;;;;;20.30;13.18;;;10.70;99.90;;;;;;5054869;28;20108;-72
2020/12/15 04:40:43;;;;;;;21.85;13.73;;;10.70;99.90;;;;;;5060200;28;20071;-72
2020/12/15 04:43:10;;;;;;;20.85;14.35;;;10.70;99.90;;;;;;5059963;28;20029;-72
2020/12/15 04:45:35;;;;;;;22.23;13.25;;;10.70;99.90;;;;;;5053289;28;20036;-72
2020/12/15 04:48:07;;;;;;;21.35;13.85;;;10.70;99.90;;;;;;5058007;28;20035;-72
2020/12/15 04:50:35;;;;;;;22.08;13.43;;;10.70;99.90;;;;;;5055228;28;20024;-72
2020/12/15 04:53:09;;;;;;;19.98;13.77;;;10.70;99.90;;;;;;5053110;28;20056;-72
2020/12/15 04:55:36;;;;;;;25.90;15.32;;;10.70;99.90;;;;;;5053410;28;20044;-72
2020/12/15 04:58:02;;;;;;;22.00;14.10;;;10.70;99.90;;;;;;5058146;28;20033;-72
2020/12/15 05:00:28;;;;;;;21.52;14.15;;;10.70;99.90;;;;;;5053979;28;20493;-72
2020/12/15 05:02:55;;;;;;;22.30;15.05;;;10.70;99.90;;;;;;5053896;28;20091;-72
2020/12/15 05:05:22;;;;;;;21.40;14.15;;;10.70;99.90;;;;;;5057236;28;20057;-72
2020/12/15 05:07:48;;;;;;;23.52;15.70;;;10.60;99.90;;;;;;5059107;28;20025;-72
2020/12/15 05:10:16;;;;;;;23.77;15.40;;;10.70;99.90;;;;;;5067342;28;20036;-72
2020/12/15 05:12:43;;;;;;;30.10;18.67;;;10.60;99.90;;;;;;5057643;28;20024;-72
2020/12/15 05:15:14;;;;;;;27.00;16.85;;;10.60;99.90;;;;;;5058232;28;20092;-72
2020/12/15 05:17:39;;;;;;;26.85;17.90;;;10.70;99.90;;;;;;5054448;28;20104;-72
2020/12/15 05:20:26;;;;;;;23.73;15.02;;;10.70;99.90;;;;;;5063255;28;20070;-72
2020/12/15 05:22:52;;;;;;;19.08;13.38;;;10.60;99.90;;;;;;5055653;28;20033;-72
2020/12/15 05:25:26;;;;;;;19.80;11.88;;;10.70;99.90;;;;;;5055656;28;20045;-72
2020/12/15 05:27:52;;;;;;;15.48;10.93;;;10.70;99.90;;;;;;5060190;28;20067;-72
2020/12/15 05:30:18;;;;;;;17.83;12.15;;;10.70;99.90;;;;;;5058194;28;20120;-72
2020/12/15 05:32:58;;;;;;;13.82;9.55;;;10.70;99.90;;;;;;5055245;28;20032;-72
2020/12/15 05:35:33;;;;;;;17.48;9.95;;;10.70;99.90;;;;;;5059585;28;20520;-72
2020/12/15 05:38:04;;;;;;;12.98;9.20;;;10.70;99.90;;;;;;5055836;28;20040;-72
2020/12/15 05:40:30;;;;;;;19.45;10.18;;;10.70;99.90;;;;;;5056413;28;20347;-72
2020/12/15 05:42:57;;;;;;;15.98;9.50;;;10.70;99.90;;;;;;5054512;28;20028;-72
2020/12/15 05:45:24;;;;;;;14.40;9.65;;;10.70;99.90;;;;;;5060679;28;20493;-72
2020/12/15 05:47:51;;;;;;;12.68;9.43;;;10.70;99.90;;;;;;5058836;28;20029;-72
2020/12/15 05:50:22;;;;;;;12.63;9.50;;;10.70;99.90;;;;;;5058755;28;20032;-72
2020/12/15 05:52:59;;;;;;;14.80;8.70;;;10.70;99.90;;;;;;5060083;28;20031;-72
2020/12/15 05:55:25;;;;;;;15.07;9.25;;;10.70;99.90;;;;;;5059125;28;20029;-72
2020/12/15 05:57:51;;;;;;;12.65;8.48;;;10.70;99.90;;;;;;5062580;28;20013;-72
2020/12/15 06:00:17;;;;;;;13.85;9.60;;;10.60;99.90;;;;;;5051163;28;20558;-72
2020/12/15 06:02:44;;;;;;;15.52;10.43;;;10.60;99.90;;;;;;5056171;28;20103;-72
2020/12/15 06:05:10;;;;;;;15.88;10.15;;;10.70;99.90;;;;;;5058058;28;20033;-72
2020/12/15 06:07:36;;;;;;;13.38;9.25;;;10.70;99.90;;;;;;5068620;28;20100;-72
2020/12/15 06:10:04;;;;;;;12.70;9.13;;;10.60;99.90;;;;;;5066083;28;20028;-72
2020/12/15 06:12:30;;;;;;;14.38;9.45;;;10.60;99.90;;;;;;5055588;28;20028;-71
2020/12/15 06:14:55;;;;;;;16.20;9.45;;;10.60;99.90;;;;;;5050642;28;20074;-71
2020/12/15 06:17:22;;;;;;;12.57;9.82;;;10.60;99.90;;;;;;5058442;28;20025;-71
2020/12/15 06:19:55;;;;;;;19.20;12.43;;;10.70;99.90;;;;;;5060296;28;20021;-71
2020/12/15 06:22:25;;;;;;;15.00;10.02;;;10.80;99.90;;;;;;5056391;28;20052;-71
2020/12/15 06:24:55;;;;;;;13.80;10.45;;;10.80;99.90;;;;;;5055346;28;20611;-71
2020/12/15 06:27:33;;;;;;;16.58;10.75;;;10.80;99.90;;;;;;5059789;28;20032;-72
2020/12/15 06:29:59;;;;;;;14.30;9.98;;;10.80;99.90;;;;;;5060806;28;20029;-71
2020/12/15 06:32:25;;;;;;;17.38;11.45;;;10.80;99.90;;;;;;5058708;28;20212;-71
2020/12/15 06:34:52;;;;;;;12.55;9.52;;;10.80;99.90;;;;;;5058215;28;20028;-71
2020/12/15 06:37:20;;;;;;;17.30;10.45;;;10.80;99.90;;;;;;5060823;28;20025;-71
2020/12/15 06:40:02;;;;;;;13.93;9.70;;;10.80;99.90;;;;;;5057743;28;20116;-72
2020/12/15 06:42:28;;;;;;;14.40;10.23;;;10.80;99.90;;;;;;5060523;28;20086;-71
2020/12/15 06:45:07;;;;;;;12.73;9.18;;;10.80;99.90;;;;;;5063853;28;20075;-72
2020/12/15 06:47:34;;;;;;;15.95;10.13;;;10.80;99.90;;;;;;5064163;28;20048;-72
2020/12/15 06:50:12;;;;;;;13.13;9.15;;;10.80;99.90;;;;;;5060195;28;20078;-72
2020/12/15 06:52:37;;;;;;;15.77;10.63;;;10.80;99.90;;;;;;5060354;28;20110;-72
2020/12/15 06:55:03;;;;;;;16.42;11.25;;;10.80;99.90;;;;;;5063698;28;20021;-72
2020/12/15 06:57:34;;;;;;;18.42;11.63;;;10.80;99.90;;;;;;5062078;28;20039;-71
2020/12/15 07:00:04;;;;;;;14.02;10.27;;;10.80;99.90;;;;;;5055099;28;20055;-72
2020/12/15 07:02:31;;;;;;;18.50;11.70;;;10.80;99.90;;;;;;5055685;28;20025;-71
2020/12/15 07:05:17;;;;;;;15.35;9.13;;;10.80;99.90;;;;;;5062095;28;20033;-72
2020/12/15 07:07:52;;;;;;;13.23;10.55;;;10.80;99.90;;;;;;5066572;28;20504;-72
2020/12/15 07:10:19;;;;;;;15.02;9.32;;;10.80;99.90;;;;;;5064058;28;20104;-72
2020/12/15 07:12:49;;;;;;;15.90;11.05;;;10.90;99.90;;;;;;5058949;28;20245;-71
2020/12/15 07:15:16;;;;;;;19.45;12.00;;;10.80;99.90;;;;;;5063275;28;20025;-71
2020/12/15 07:17:47;;;;;;;12.40;9.80;;;10.90;99.90;;;;;;5066106;28;20027;-71
2020/12/15 07:20:14;;;;;;;18.05;11.02;;;10.90;99.90;;;;;;5065579;28;20025;-71
2020/12/15 07:22:40;;;;;;;16.45;9.30;;;10.90;99.90;;;;;;5056059;28;20470;-71
2020/12/15 07:25:06;;;;;;;15.50;10.23;;;10.80;99.90;;;;;;5060945;28;20086;-71
2020/12/15 07:27:33;;;;;;;17.80;11.77;;;10.80;99.90;;;;;;5062893;28;20029;-71
2020/12/15 07:29:59;;;;;;;16.42;11.60;;;10.80;99.90;;;;;;5067918;28;20017;-71
2020/12/15 07:32:27;;;;;;;18.85;12.40;;;10.80;99.90;;;;;;5055884;28;20438;-72
2020/12/15 07:35:13;;;;;;;18.98;11.10;;;10.80;99.90;;;;;;5062937;28;20346;-71
2020/12/15 07:37:43;;;;;;;19.02;11.00;;;10.70;99.90;;;;;;5067390;28;20462;-71
2020/12/15 07:40:11;;;;;;;17.00;11.23;;;10.70;99.90;;;;;;5053777;28;20032;-74
2020/12/15 07:42:37;;;;;;;18.40;12.07;;;10.80;99.90;;;;;;5059185;28;20500;-71
2020/12/15 07:45:08;;;;;;;12.45;9.93;;;10.80;99.90;;;;;;5053698;28;20083;-71
2020/12/15 07:47:41;;;;;;;15.63;10.75;;;10.80;99.90;;;;;;5056201;28;20021;-71
2020/12/15 07:50:09;;;;;;;17.15;11.27;;;10.80;99.90;;;;;;5063635;28;20044;-71
2020/12/15 07:52:36;;;;;;;20.30;10.77;;;10.80;99.90;;;;;;5056514;28;20086;-72
2020/12/15 07:55:13;;;;;;;17.55;11.70;;;10.80;99.90;;;;;;5062457;28;20013;-73
2020/12/15 07:57:41;;;;;;;17.25;11.18;;;10.90;99.90;;;;;;5055558;28;20036;-72
2020/12/15 08:00:15;;;;;;;16.27;10.20;;;10.90;99.90;;;;;;5059300;28;20021;-73
2020/12/15 08:02:43;;;;;;;15.48;11.73;;;10.90;99.90;;;;;;5053704;28;20028;-73
2020/12/15 08:05:12;;;;;;;17.92;10.90;;;10.90;99.90;;;;;;5055427;28;20033;-73
2020/12/15 08:07:48;;;;;;;17.88;11.00;;;10.90;99.90;;;;;;5057527;28;20029;-73
2020/12/15 08:10:16;;;;;;;14.25;9.10;;;10.90;99.90;;;;;;5060381;28;20063;-72
2020/12/15 08:12:42;;;;;;;14.65;9.63;;;10.90;99.90;;;;;;5058781;28;20021;-72
2020/12/15 08:15:09;;;;;;;14.73;11.10;;;10.90;99.90;;;;;;5054943;28;20378;-73
2020/12/15 08:17:37;;;;;;;16.67;10.38;;;10.90;99.90;;;;;;5059369;28;20029;-73
2020/12/15 08:20:07;;;;;;;16.27;10.35;;;10.90;99.90;;;;;;5064091;28;20510;-72
2020/12/15 08:22:41;;;;;;;14.35;9.65;;;10.80;99.90;;;;;;5056357;28;20025;-72
2020/12/15 08:25:25;;;;;;;11.38;8.20;;;10.90;99.90;;;;;;5061078;28;20126;-72
2020/12/15 08:27:51;;;;;;;11.60;8.93;;;10.90;99.90;;;;;;5052560;28;20056;-72
2020/12/15 08:30:19;;;;;;;12.45;8.50;;;10.90;99.90;;;;;;5059987;28;20490;-73
2020/12/15 08:32:50;;;;;;;12.75;8.38;;;10.80;99.90;;;;;;5059658;28;20391;-73
2020/12/15 08:35:23;;;;;;;11.18;8.23;;;10.90;99.90;;;;;;5052279;28;20024;-73
2020/12/15 08:37:55;;;;;;;10.52;8.18;;;11.00;99.90;;;;;;5054599;28;20021;-73
2020/12/15 08:40:21;;;;;;;12.02;9.02;;;11.00;99.90;;;;;;5057839;28;20478;-73
2020/12/15 08:42:47;;;;;;;15.02;9.70;;;11.00;99.90;;;;;;5066201;28;20497;-73
2020/12/15 08:45:16;;;;;;;11.93;9.13;;;11.00;99.90;;;;;;5054209;28;20049;-73
2020/12/15 08:47:47;;;;;;;13.85;9.82;;;11.00;99.90;;;;;;5061292;28;20018;-72
2020/12/15 08:50:14;;;;;;;11.88;7.72;;;11.00;99.90;;;;;;5057676;28;20025;-72
2020/12/15 08:52:41;;;;;;;15.25;8.85;;;11.10;99.90;;;;;;5056716;28;20482;-73
2020/12/15 08:55:07;;;;;;;18.20;11.07;;;11.10;99.90;;;;;;5055551;28;20029;-73
2020/12/15 08:57:33;;;;;;;11.70;8.18;;;11.10;99.90;;;;;;5060207;28;20394;-73
2020/12/15 09:00:18;;;;;;;12.60;8.15;;;11.10;99.90;;;;;;5055105;28;20025;-73
2020/12/15 09:02:43;;;;;;;14.43;8.70;;;11.10;99.90;;;;;;5055106;28;20032;-73
2020/12/15 09:05:11;;;;;;;14.15;10.95;;;11.00;99.90;;;;;;5052373;28;20035;-73
2020/12/15 09:07:39;;;;;;;15.52;8.52;;;11.10;99.90;;;;;;5062505;28;20008;-73
2020/12/15 09:10:23;;;;;;;16.35;10.98;;;11.10;99.90;;;;;;5059786;28;20112;-74
2020/12/15 09:12:49;;;;;;;15.10;9.75;;;11.10;99.90;;;;;;5066328;28;20033;-73
2020/12/15 09:15:14;;;;;;;12.57;8.73;;;11.10;99.90;;;;;;5057088;28;20098;-73
2020/12/15 09:17:40;;;;;;;12.20;8.55;;;11.10;99.90;;;;;;5059287;28;20487;-73
2020/12/15 09:20:08;;;;;;;13.68;8.43;;;11.20;99.90;;;;;;5060941;28;20025;-74
2020/12/15 09:22:37;;;;;;;12.95;8.90;;;11.20;99.90;;;;;;5056902;28;20091;-73
2020/12/15 09:25:12;;;;;;;11.15;8.00;;;11.20;99.90;;;;;;5066218;28;20093;-72
2020/12/15 09:27:38;;;;;;;13.25;8.75;;;11.20;99.90;;;;;;5060542;28;20071;-72
2020/12/15 09:30:04;;;;;;;10.77;7.63;;;11.20;99.90;;;;;;5059942;28;20354;-72
2020/12/15 09:32:32;;;;;;;12.75;8.40;;;11.30;99.90;;;;;;5054707;28;20029;-74
2020/12/15 09:34:57;;;;;;;12.02;7.32;;;11.30;99.90;;;;;;5055992;28;20017;-74
2020/12/15 09:37:23;;;;;;;14.07;8.30;;;11.30;99.90;;;;;;5050792;28;20495;-73
2020/12/15 09:39:48;;;;;;;13.82;9.23;;;11.30;99.90;;;;;;5053463;28;20039;-73
2020/12/15 09:42:16;;;;;;;12.98;9.40;;;11.30;99.90;;;;;;5050551;28;20386;-73
2020/12/15 09:44:42;;;;;;;10.13;8.20;;;11.30;99.90;;;;;;5047725;28;20033;-74
2020/12/15 09:47:08;;;;;;;12.55;8.88;;;11.40;99.90;;;;;;5052848;28;20025;-74
2020/12/15 09:49:34;;;;;;;11.05;8.30;;;11.40;99.90;;;;;;5052698;28;20381;-74
2020/12/15 09:52:00;;;;;;;11.25;8.32;;;11.50;99.90;;;;;;5054335;28;20056;-74
2020/12/15 09:54:26;;;;;;;14.15;9.50;;;11.50;99.90;;;;;;5050405;28;20111;-74
2020/12/15 09:56:51;;;;;;;14.68;8.90;;;11.50;99.90;;;;;;5048322;28;20079;-74
2020/12/15 09:59:17;;;;;;;16.35;10.82;;;11.50;99.90;;;;;;5057474;28;20638;-74
2020/12/15 10:01:43;;;;;;;15.32;10.18;;;11.60;99.90;;;;;;5053637;28;20559;-74
2020/12/15 10:04:09;;;;;;;16.58;10.32;;;11.60;99.90;;;;;;5054357;28;20483;-72
2020/12/15 10:06:36;;;;;;;12.05;8.80;;;11.60;99.90;;;;;;5057384;28;20013;-78
2020/12/15 10:09:03;;;;;;;15.40;9.15;;;11.60;99.90;;;;;;5051477;28;20032;-73
2020/12/15 10:11:29;;;;;;;14.65;10.68;;;11.60;99.90;;;;;;5051149;28;20032;-74
2020/12/15 10:13:54;;;;;;;15.60;10.13;;;11.60;99.90;;;;;;5052229;28;20029;-75
2020/12/15 10:16:20;;;;;;;17.60;11.43;;;11.60;99.90;;;;;;5050886;28;20029;-73
2020/12/15 10:18:46;;;;;;;13.55;10.82;;;11.70;99.90;;;;;;5053887;28;20358;-75
2020/12/15 10:21:11;;;;;;;20.75;11.68;;;11.70;99.90;;;;;;5052162;28;20061;-74
2020/12/15 10:23:37;;;;;;;15.82;10.77;;;11.60;99.90;;;;;;5058970;28;20543;-74
2020/12/15 10:26:06;;;;;;;14.50;10.75;;;11.70;99.90;;;;;;5062833;28;20021;-75
2020/12/15 10:28:32;;;;;;;12.88;9.70;;;11.70;99.90;;;;;;5057901;28;20117;-75
2020/12/15 10:30:59;;;;;;;15.38;8.85;;;11.70;99.90;;;;;;5058994;28;20485;-74
2020/12/15 10:33:24;;;;;;;13.77;8.80;;;11.60;99.90;;;;;;5055633;28;20071;-75
2020/12/15 10:35:51;;;;;;;11.57;8.45;;;11.60;99.90;;;;;;5056208;28;20025;-74
2020/12/15 10:38:16;;;;;;;87.63;63.42;;;11.70;99.90;;;;;;5065263;28;20033;-75
2020/12/15 10:40:42;;;;;;;16.00;11.23;;;11.70;99.90;;;;;;5055029;28;20036;-76
2020/12/15 10:43:08;;;;;;;11.48;8.88;;;11.70;99.90;;;;;;5052052;28;20049;-75
2020/12/15 10:45:33;;;;;;;14.05;9.27;;;11.60;99.90;;;;;;5050559;28;20112;-75
2020/12/15 10:48:01;;;;;;;11.57;7.22;;;11.70;99.90;;;;;;5052932;28;20100;-75
2020/12/15 10:50:26;;;;;;;13.10;8.80;;;11.70;99.90;;;;;;5057200;28;20033;-75
2020/12/15 10:52:52;;;;;;;12.52;8.93;;;11.70;99.90;;;;;;5056079;28;20025;-74
2020/12/15 10:55:18;;;;;;;13.63;10.35;;;11.70;99.90;;;;;;5057329;28;20033;-75
2020/12/15 10:57:43;;;;;;;12.02;8.98;;;11.70;99.90;;;;;;5054278;28;20016;-75
2020/12/15 11:00:09;;;;;;;12.35;8.63;;;11.70;99.90;;;;;;5056957;28;20020;-75
2020/12/15 11:02:35;;;;;;;11.05;7.80;;;11.70;99.90;;;;;;5054939;28;20025;-75
2020/12/15 11:05:00;;;;;;;12.82;8.60;;;11.70;99.90;;;;;;5053978;28;20040;-75
2020/12/15 11:07:26;;;;;;;14.20;9.45;;;11.70;99.90;;;;;;5053426;28;20025;-75
2020/12/15 11:09:51;;;;;;;15.35;10.50;;;11.60;99.90;;;;;;5051994;28;20024;-75
2020/12/15 11:12:17;;;;;;;12.93;9.90;;;11.70;99.90;;;;;;5049994;28;20042;-75
2020/12/15 11:14:43;;;;;;;11.80;8.05;;;11.60;99.90;;;;;;5051443;28;20075;-75
2020/12/15 11:17:09;;;;;;;17.05;10.88;;;11.70;99.90;;;;;;5050422;28;20115;-75
2020/12/15 11:19:35;;;;;;;17.70;12.25;;;11.70;99.90;;;;;;5050604;28;20072;-75
2020/12/15 11:22:01;;;;;;;13.02;9.55;;;11.60;99.90;;;;;;5054081;28;20024;-75
2020/12/15 11:24:27;;;;;;;13.13;10.07;;;11.60;99.90;;;;;;5053903;28;20082;-75
2020/12/15 11:26:53;;;;;;;18.25;11.82;;;11.60;99.90;;;;;;5057288;28;20013;-75
2020/12/15 11:29:19;;;;;;;16.10;11.07;;;11.70;99.90;;;;;;5056220;28;20028;-75
2020/12/15 11:31:49;;;;;;;21.42;12.43;;;11.60;99.90;;;;;;5053319;28;20499;-75
2020/12/15 11:34:14;;;;;;;18.42;13.88;;;11.60;99.90;;;;;;5051694;28;20126;-75
2020/12/15 11:36:40;;;;;;;18.83;12.77;;;11.70;99.90;;;;;;5057657;28;20560;-75
2020/12/15 11:39:05;;;;;;;16.60;11.45;;;11.70;99.90;;;;;;5058686;28;20096;-75
2020/12/15 11:41:31;;;;;;;14.13;9.73;;;11.70;99.90;;;;;;5054677;28;20106;-75
2020/12/15 11:43:57;;;;;;;19.92;10.45;;;11.60;99.90;;;;;;5055145;28;20119;-75
2020/12/15 11:46:22;;;;;;;14.57;10.98;;;11.70;99.90;;;;;;5054015;28;20024;-75
2020/12/15 11:48:48;;;;;;;13.80;9.32;;;11.60;99.90;;;;;;5054145;28;20025;-75
2020/12/15 11:51:20;;;;;;;10.90;8.57;;;11.60;99.90;;;;;;5050999;28;20029;-75
2020/12/15 11:53:49;;;;;;;16.08;9.48;;;11.70;99.90;;;;;;5056539;28;20032;-75
2020/12/15 11:56:16;;;;;;;14.88;9.57;;;11.70;99.90;;;;;;5054980;28;20468;-75
2020/12/15 11:58:42;;;;;;;12.57;9.18;;;11.70;99.90;;;;;;5053150;28;20025;-75
2020/12/15 12:01:08;;;;;;;17.80;11.90;;;11.70;99.90;;;;;;5055809;28;20028;-75
2020/12/15 12:03:34;;;;;;;11.35;8.32;;;11.70;99.90;;;;;;5052658;28;20029;-75
2020/12/15 12:06:00;;;;;;;16.13;10.60;;;11.70;99.90;;;;;;5061287;28;20024;-76
2020/12/15 12:08:26;;;;;;;13.60;10.30;;;11.70;99.90;;;;;;5061920;28;20479;-75
2020/12/15 12:10:51;;;;;;;12.85;9.60;;;11.70;99.90;;;;;;5061502;28;20491;-75
2020/12/15 12:13:17;;;;;;;15.10;10.52;;;11.70;99.90;;;;;;5054842;28;20051;-76
2020/12/15 12:15:43;;;;;;;12.90;9.60;;;11.80;99.90;;;;;;5055947;28;20051;-75
2020/12/15 12:18:08;;;;;;;15.35;11.07;;;11.80;99.90;;;;;;5057090;28;20103;-75
2020/12/15 12:20:35;;;;;;;15.45;10.40;;;11.80;99.90;;;;;;5054313;28;20096;-75
2020/12/15 12:23:02;;;;;;;13.68;10.77;;;11.80;99.90;;;;;;5051865;28;20021;-75
2020/12/15 12:25:28;;;;;;;15.05;10.90;;;11.80;99.90;;;;;;5060632;28;20037;-75
2020/12/15 12:27:54;;;;;;;12.38;9.75;;;11.80;99.90;;;;;;5055806;28;20032;-75
2020/12/15 12:30:20;;;;;;;15.18;12.13;;;11.80;99.90;;;;;;5056930;28;20033;-75
2020/12/15 12:32:46;;;;;;;19.95;12.93;;;11.80;99.90;;;;;;5055427;28;20029;-75